createdAt,value
2023-02-17T00:00:05.777Z,1006
2023-02-17T00:03:05.635Z,1006
2023-02-17T00:06:05.823Z,1006
2023-02-17T00:09:05.502Z,1006
2023-02-17T00:12:05.562Z,1006
2023-02-17T00:15:05.644Z,1006
2023-02-17T00:18:05.752Z,1006
2023-02-17T00:21:05.540Z,1006
2023-02-17T00:24:05.539Z,1006
2023-02-17T00:27:05.576Z,1006
2023-02-17T00:30:05.790Z,1006
2023-02-17T00:33:05.563Z,1006
2023-02-17T00:36:06.198Z,1006
2023-02-17T00:39:05.543Z,1006
2023-02-17T00:42:05.494Z,1006
2023-02-17T00:45:05.597Z,1006
2023-02-17T00:48:05.547Z,1006
2023-02-17T00:51:05.550Z,1006
2023-02-17T00:54:05.618Z,1006
2023-02-17T00:57:05.499Z,1006
2023-02-17T01:00:05.544Z,1006
2023-02-17T01:03:05.530Z,1006
2023-02-17T01:06:06.265Z,1006
2023-02-17T01:09:05.526Z,1006
2023-02-17T01:12:05.622Z,1006
2023-02-17T01:15:05.625Z,1006
2023-02-17T01:18:05.555Z,1006
2023-02-17T01:21:05.478Z,1006
2023-02-17T01:24:05.551Z,1006
2023-02-17T01:27:05.556Z,1006
2023-02-17T01:30:05.793Z,1006
2023-02-17T01:33:05.554Z,1005
2023-02-17T01:36:05.929Z,1005
2023-02-17T01:39:05.594Z,1005
2023-02-17T01:42:05.462Z,1005
2023-02-17T01:45:05.568Z,1005
2023-02-17T01:48:05.598Z,1005
2023-02-17T01:51:05.473Z,1005
2023-02-17T01:54:05.539Z,1005
2023-02-17T01:57:05.530Z,1005
2023-02-17T02:00:05.559Z,1005
2023-02-17T02:03:05.890Z,1005
2023-02-17T02:06:06.412Z,1005
2023-02-17T02:09:05.535Z,1005
2023-02-17T02:12:05.529Z,1005
2023-02-17T02:15:05.671Z,1005
2023-02-17T02:18:05.594Z,1005
2023-02-17T02:21:05.522Z,1005
2023-02-17T02:24:05.520Z,1005
2023-02-17T02:27:05.589Z,1005
2023-02-17T02:30:05.811Z,1005
2023-02-17T02:33:05.540Z,1005
2023-02-17T02:36:06.065Z,1005
2023-02-17T02:39:05.513Z,1005
2023-02-17T02:42:05.520Z,1005
2023-02-17T02:45:05.552Z,1005
2023-02-17T02:48:05.485Z,1005
2023-02-17T02:51:05.544Z,1005
2023-02-17T02:54:05.672Z,1005
2023-02-17T02:57:05.589Z,1005
2023-02-17T03:00:05.590Z,1005
2023-02-17T03:03:05.582Z,1005
2023-02-17T03:06:06.140Z,1005
2023-02-17T03:09:05.504Z,1005
2023-02-17T03:12:05.592Z,1004
2023-02-17T03:15:05.688Z,1004
2023-02-17T03:18:05.573Z,1004
2023-02-17T03:21:05.551Z,1004
2023-02-17T03:24:05.585Z,1004
2023-02-17T03:27:05.527Z,1004
2023-02-17T03:30:05.845Z,1004
2023-02-17T03:33:05.578Z,1004
2023-02-17T03:36:05.836Z,1004
2023-02-17T03:39:05.603Z,1004
2023-02-17T03:42:05.489Z,1004
2023-02-17T03:45:05.600Z,1004
2023-02-17T03:48:05.580Z,1004
2023-02-17T03:51:05.543Z,1004
2023-02-17T03:54:05.491Z,1004
2023-02-17T03:57:05.637Z,1004
2023-02-17T04:00:05.583Z,1004
2023-02-17T04:03:05.629Z,1004
2023-02-17T04:06:06.201Z,1004
2023-02-17T04:09:05.527Z,1004
2023-02-17T04:12:05.590Z,1004
2023-02-17T04:15:05.538Z,1004
2023-02-17T04:18:05.546Z,1004
2023-02-17T04:21:05.501Z,1004
2023-02-17T04:24:05.522Z,1004
2023-02-17T04:27:05.522Z,1004
2023-02-17T04:30:05.842Z,1004
2023-02-17T04:33:05.560Z,1004
2023-02-17T04:36:06.041Z,1004
2023-02-17T04:39:05.552Z,1004
2023-02-17T04:42:05.605Z,1004
2023-02-17T04:45:05.577Z,1004
2023-02-17T04:48:05.565Z,1004
2023-02-17T04:51:05.650Z,1004
2023-02-17T04:54:05.728Z,1004
2023-02-17T04:57:05.599Z,1004
2023-02-17T05:00:05.525Z,1004
2023-02-17T05:03:05.653Z,1004
2023-02-17T05:06:06.293Z,1004
2023-02-17T05:09:05.578Z,1004
2023-02-17T05:12:05.500Z,1004
2023-02-17T05:15:05.562Z,1004
2023-02-17T05:18:05.502Z,1003
2023-02-17T05:21:05.541Z,1003
2023-02-17T05:24:05.530Z,1003
2023-02-17T05:27:05.569Z,1003
2023-02-17T05:30:05.763Z,1003
2023-02-17T05:33:05.554Z,1003
2023-02-17T05:36:06.155Z,1003
2023-02-17T05:39:05.524Z,1003
2023-02-17T05:42:05.541Z,1003
2023-02-17T05:45:05.555Z,1003
2023-02-17T05:48:05.670Z,1003
2023-02-17T05:51:05.579Z,1003
2023-02-17T05:54:05.568Z,1003
2023-02-17T05:57:05.514Z,1003
2023-02-17T06:00:05.669Z,1003
2023-02-17T06:03:05.714Z,1003
2023-02-17T06:06:06.266Z,1003
2023-02-17T06:09:05.557Z,1003
2023-02-17T06:12:05.567Z,1003
2023-02-17T06:15:05.580Z,1003
2023-02-17T06:18:05.554Z,1003
2023-02-17T06:21:05.498Z,1003
2023-02-17T06:24:05.483Z,1003
2023-02-17T06:27:05.575Z,1003
2023-02-17T06:30:05.800Z,1003
2023-02-17T06:33:05.704Z,1003
2023-02-17T06:36:06.116Z,1003
2023-02-17T06:39:05.612Z,1003
2023-02-17T06:42:05.531Z,1003
2023-02-17T06:45:05.589Z,1003
2023-02-17T06:48:05.605Z,1003
2023-02-17T06:51:05.627Z,1003
2023-02-17T06:54:05.647Z,1003
2023-02-17T06:57:05.716Z,1003
2023-02-17T07:00:05.655Z,1003
2023-02-17T07:03:06.393Z,1003
2023-02-17T07:06:05.925Z,1003
2023-02-17T07:09:05.564Z,1003
2023-02-17T07:12:05.580Z,1003
2023-02-17T07:15:05.572Z,1003
2023-02-17T07:18:05.906Z,1003
2023-02-17T07:21:05.592Z,1003
2023-02-17T07:24:05.519Z,1002
2023-02-17T07:27:05.659Z,1002
2023-02-17T07:30:05.834Z,1002
2023-02-17T07:33:08.801Z,1002
2023-02-17T07:36:05.991Z,1002
2023-02-17T07:39:05.607Z,1002
2023-02-17T07:42:05.660Z,1003
2023-02-17T07:45:05.605Z,1003
2023-02-17T07:48:05.630Z,1003
2023-02-17T07:51:05.615Z,1003
2023-02-17T07:54:05.682Z,1002
2023-02-17T07:57:05.563Z,1002
2023-02-17T08:00:05.856Z,1002
2023-02-17T08:03:05.619Z,1002
2023-02-17T08:06:05.861Z,1002
2023-02-17T08:09:05.612Z,1002
2023-02-17T08:12:05.562Z,1002
2023-02-17T08:15:05.641Z,1002
2023-02-17T08:18:05.626Z,1002
2023-02-17T08:21:06.398Z,1002
2023-02-17T08:24:05.553Z,1002
2023-02-17T08:27:06.302Z,1002
2023-02-17T08:30:05.954Z,1002
2023-02-17T08:33:05.722Z,1002
2023-02-17T08:36:05.839Z,1002
2023-02-17T08:39:05.572Z,1002
2023-02-17T08:42:05.684Z,1002
2023-02-17T08:45:05.581Z,1002
2023-02-17T08:48:05.654Z,1002
2023-02-17T08:51:05.727Z,1002
2023-02-17T08:54:05.678Z,1002
2023-02-17T08:57:05.685Z,1002
2023-02-17T09:00:07.781Z,1002
2023-02-17T09:03:05.757Z,1002
2023-02-17T09:06:06.066Z,1002
2023-02-17T09:09:05.676Z,1002
2023-02-17T09:12:05.613Z,1002
2023-02-17T09:15:05.846Z,1001
2023-02-17T09:18:05.612Z,1001
2023-02-17T09:21:05.629Z,1001
2023-02-17T09:24:05.853Z,1001
2023-02-17T09:27:05.716Z,1001
2023-02-17T09:30:06.160Z,1001
2023-02-17T09:33:05.910Z,1001
2023-02-17T09:36:05.908Z,1001
2023-02-17T09:39:05.806Z,1001
2023-02-17T09:42:05.748Z,1001
2023-02-17T09:45:05.795Z,1001
2023-02-17T09:48:05.766Z,1001
2023-02-17T09:51:05.854Z,1001
2023-02-17T09:54:05.785Z,1001
2023-02-17T09:57:05.754Z,1001
2023-02-17T10:00:06.083Z,1001
2023-02-17T10:03:05.739Z,1001
2023-02-17T10:06:05.849Z,1001
2023-02-17T10:09:05.587Z,1001
2023-02-17T10:12:05.781Z,1001
2023-02-17T10:15:05.919Z,1001
2023-02-17T10:18:05.647Z,1001
2023-02-17T10:21:05.678Z,1001
2023-02-17T10:24:05.600Z,1001
2023-02-17T10:27:05.778Z,1001
2023-02-17T10:30:05.912Z,1001
2023-02-17T10:33:05.687Z,1001
2023-02-17T10:36:06.081Z,1001
2023-02-17T10:39:05.684Z,1001
2023-02-17T10:42:05.571Z,1000
2023-02-17T10:45:06.078Z,1000
2023-02-17T10:48:05.619Z,1000
2023-02-17T10:51:05.529Z,1000
2023-02-17T10:54:05.679Z,1000
2023-02-17T10:57:05.663Z,1000
2023-02-17T11:00:05.686Z,1000
2023-02-17T11:03:05.641Z,1000
2023-02-17T11:06:05.967Z,1000
2023-02-17T11:09:05.525Z,1000
2023-02-17T11:12:05.652Z,1000
2023-02-17T11:15:05.574Z,1000
2023-02-17T11:18:06.095Z,1000
2023-02-17T11:21:05.685Z,1000
2023-02-17T11:24:05.616Z,1000
2023-02-17T11:27:05.778Z,1000
2023-02-17T11:30:05.872Z,1000
2023-02-17T11:33:05.690Z,1000
2023-02-17T11:36:05.926Z,1000
2023-02-17T11:39:05.533Z,1000
2023-02-17T11:42:05.743Z,1000
2023-02-17T11:45:05.723Z,1000
2023-02-17T11:48:05.693Z,1000
2023-02-17T11:51:05.606Z,1000
2023-02-17T11:54:05.752Z,1000
2023-02-17T11:57:05.605Z,1000
2023-02-17T12:00:06.108Z,1000
2023-02-17T12:03:05.817Z,1000
2023-02-17T12:06:06.042Z,1000
2023-02-17T12:09:05.630Z,1000
2023-02-17T12:12:05.579Z,999
2023-02-17T12:15:05.612Z,999
2023-02-17T12:18:05.971Z,999
2023-02-17T12:21:05.548Z,999
2023-02-17T12:24:05.566Z,999
2023-02-17T12:27:06.232Z,999
2023-02-17T12:30:05.811Z,999
2023-02-17T12:33:05.637Z,999
2023-02-17T12:36:05.816Z,999
2023-02-17T12:39:05.644Z,999
2023-02-17T12:42:05.616Z,999
2023-02-17T12:45:05.662Z,999
2023-02-17T12:48:05.578Z,999
2023-02-17T12:51:05.655Z,999
2023-02-17T12:54:06.268Z,999
2023-02-17T12:57:05.593Z,999
2023-02-17T13:00:05.659Z,999
2023-02-17T13:03:05.721Z,999
2023-02-17T13:06:05.941Z,999
2023-02-17T13:09:05.587Z,999
2023-02-17T13:12:05.593Z,999
2023-02-17T13:15:05.690Z,999
2023-02-17T13:18:05.759Z,999
2023-02-17T13:21:05.762Z,999
2023-02-17T13:24:05.612Z,1000
2023-02-17T13:27:05.617Z,999
2023-02-17T13:30:05.813Z,999
2023-02-17T13:33:05.679Z,999
2023-02-17T13:36:05.842Z,999
2023-02-17T13:39:05.667Z,999
2023-02-17T13:42:05.668Z,999
2023-02-17T13:45:05.675Z,999
2023-02-17T13:48:05.845Z,999
2023-02-17T13:51:05.582Z,999
2023-02-17T13:54:05.650Z,1000
2023-02-17T13:57:05.560Z,1000
2023-02-17T14:00:05.787Z,1000
2023-02-17T14:03:05.650Z,1000
2023-02-17T14:06:05.953Z,1000
2023-02-17T14:09:05.600Z,1000
2023-02-17T14:12:05.669Z,1000
2023-02-17T14:15:05.547Z,1000
2023-02-17T14:18:05.605Z,1000
2023-02-17T14:21:06.122Z,1000
2023-02-17T14:24:05.682Z,1000
2023-02-17T14:27:05.539Z,1000
2023-02-17T14:30:09.972Z,1000
2023-02-17T14:33:05.818Z,1000
2023-02-17T14:36:06.023Z,1000
2023-02-17T14:39:05.579Z,1001
2023-02-17T14:42:05.572Z,1001
2023-02-17T14:45:05.695Z,1001
2023-02-17T14:48:05.597Z,1001
2023-02-17T14:51:05.688Z,1001
2023-02-17T14:54:05.687Z,1001
2023-02-17T14:57:05.828Z,1001
2023-02-17T15:00:05.679Z,1001
2023-02-17T15:03:05.980Z,1000
2023-02-17T15:06:05.803Z,1000
2023-02-17T15:09:05.703Z,1001
2023-02-17T15:12:05.654Z,1001
2023-02-17T15:15:05.611Z,1001
2023-02-17T15:18:05.821Z,1001
2023-02-17T15:21:05.572Z,1001
2023-02-17T15:24:05.677Z,1001
2023-02-17T15:27:05.551Z,1001
2023-02-17T15:30:06.142Z,1001
2023-02-17T15:33:05.539Z,1001
2023-02-17T15:36:05.824Z,1001
2023-02-17T15:39:05.640Z,1001
2023-02-17T15:42:05.651Z,1001
2023-02-17T15:45:05.575Z,1001
2023-02-17T15:48:05.627Z,1001
2023-02-17T15:51:05.645Z,1001
2023-02-17T15:54:05.594Z,1001
2023-02-17T15:57:05.584Z,1001
2023-02-17T16:00:05.588Z,1001
2023-02-17T16:03:05.816Z,1001
2023-02-17T16:06:05.897Z,1001
2023-02-17T16:09:05.636Z,1001
2023-02-17T16:12:05.576Z,1001
2023-02-17T16:15:05.776Z,1001
2023-02-17T16:18:05.587Z,1001
2023-02-17T16:21:05.607Z,1001
2023-02-17T16:24:05.626Z,1001
2023-02-17T16:27:05.569Z,1001
2023-02-17T16:30:06.161Z,1002
2023-02-17T16:33:05.691Z,1002
2023-02-17T16:36:05.771Z,1002
2023-02-17T16:39:05.540Z,1002
2023-02-17T16:42:05.551Z,1002
2023-02-17T16:45:05.602Z,1002
2023-02-17T16:48:05.618Z,1002
2023-02-17T16:51:05.641Z,1002
2023-02-17T16:54:05.543Z,1002
2023-02-17T16:57:05.811Z,1002
2023-02-17T17:00:05.616Z,1002
2023-02-17T17:03:05.634Z,1002
2023-02-17T17:06:05.806Z,1002
2023-02-17T17:09:05.716Z,1002
2023-02-17T17:12:05.579Z,1002
2023-02-17T17:15:05.517Z,1002
2023-02-17T17:18:05.569Z,1002
2023-02-17T17:21:05.539Z,1002
2023-02-17T17:24:05.650Z,1001
2023-02-17T17:27:05.573Z,1002
2023-02-17T17:30:06.147Z,1002
2023-02-17T17:33:05.563Z,1002
2023-02-17T17:36:05.769Z,1002
2023-02-17T17:39:05.542Z,1002
2023-02-17T17:42:05.536Z,1002
2023-02-17T17:45:05.566Z,1002
2023-02-17T17:48:05.650Z,1002
2023-02-17T17:51:05.639Z,1001
2023-02-17T17:54:05.581Z,1002
2023-02-17T17:57:05.644Z,1002
2023-02-17T18:00:05.663Z,1002
2023-02-17T18:03:05.667Z,1002
2023-02-17T18:06:05.877Z,1002
2023-02-17T18:09:05.639Z,1002
2023-02-17T18:12:05.635Z,1002
2023-02-17T18:15:05.654Z,1002
2023-02-17T18:18:05.618Z,1002
2023-02-17T18:21:05.624Z,1002
2023-02-17T18:24:05.612Z,1003
2023-02-17T18:27:05.550Z,1003
2023-02-17T18:30:05.887Z,1003
2023-02-17T18:33:05.591Z,1003
2023-02-17T18:36:06.000Z,1003
2023-02-17T18:39:05.637Z,1003
2023-02-17T18:42:05.512Z,1003
2023-02-17T18:45:05.593Z,1003
2023-02-17T18:48:05.604Z,1003
2023-02-17T18:51:05.566Z,1003
2023-02-17T18:54:05.568Z,1003
2023-02-17T18:57:05.586Z,1003
2023-02-17T19:00:05.532Z,1003
2023-02-17T19:03:05.653Z,1003
2023-02-17T19:06:05.762Z,1003
2023-02-17T19:09:05.550Z,1003
2023-02-17T19:12:05.526Z,1003
2023-02-17T19:15:05.509Z,1004
2023-02-17T19:18:05.684Z,1004
2023-02-17T19:21:05.536Z,1004
2023-02-17T19:24:05.525Z,1004
2023-02-17T19:27:05.495Z,1004
2023-02-17T19:30:05.744Z,1004
2023-02-17T19:33:05.558Z,1004
2023-02-17T19:36:05.820Z,1004
2023-02-17T19:39:05.542Z,1004
2023-02-17T19:42:05.541Z,1004
2023-02-17T19:45:05.498Z,1004
2023-02-17T19:48:05.553Z,1004
2023-02-17T19:51:05.580Z,1004
2023-02-17T19:54:05.530Z,1004
2023-02-17T19:57:05.684Z,1004
2023-02-17T20:00:05.542Z,1004
2023-02-17T20:03:05.722Z,1004
2023-02-17T20:06:05.895Z,1004
2023-02-17T20:09:05.604Z,1004
2023-02-17T20:12:05.548Z,1004
2023-02-17T20:15:05.589Z,1004
2023-02-17T20:18:05.601Z,1004
2023-02-17T20:21:05.512Z,1004
2023-02-17T20:24:05.628Z,1005
2023-02-17T20:27:05.557Z,1005
2023-02-17T20:30:06.806Z,1005
2023-02-17T20:33:06.258Z,1005
2023-02-17T20:36:07.048Z,1005
2023-02-17T20:39:06.535Z,1005
2023-02-17T20:42:06.285Z,1005
2023-02-17T20:45:06.507Z,1005
2023-02-17T20:48:05.610Z,1005
2023-02-17T20:51:05.523Z,1005
2023-02-17T20:54:05.567Z,1005
2023-02-17T20:57:05.632Z,1005
2023-02-17T21:00:05.551Z,1005
2023-02-17T21:03:05.735Z,1005
2023-02-17T21:06:05.797Z,1005
2023-02-17T21:09:05.582Z,1005
2023-02-17T21:12:05.773Z,1005
2023-02-17T21:15:05.591Z,1005
2023-02-17T21:18:05.617Z,1005
2023-02-17T21:21:05.525Z,1005
2023-02-17T21:24:05.576Z,1005
2023-02-17T21:27:05.549Z,1005
2023-02-17T21:30:05.802Z,1005
2023-02-17T21:33:05.805Z,1005
2023-02-17T21:36:05.672Z,1005
2023-02-17T21:39:05.522Z,1005
2023-02-17T21:42:05.531Z,1005
2023-02-17T21:45:05.746Z,1005
2023-02-17T21:48:05.486Z,1005
2023-02-17T21:51:05.551Z,1005
2023-02-17T21:54:05.549Z,1005
2023-02-17T21:57:08.799Z,1005
2023-02-17T22:00:05.571Z,1005
2023-02-17T22:03:05.574Z,1005
2023-02-17T22:06:05.631Z,1005
2023-02-17T22:09:05.527Z,1005
2023-02-17T22:12:05.526Z,1006
2023-02-17T22:15:05.739Z,1006
2023-02-17T22:18:05.998Z,1006
2023-02-17T22:21:05.477Z,1006
2023-02-17T22:24:05.609Z,1006
2023-02-17T22:27:05.661Z,1006
2023-02-17T22:30:05.800Z,1006
2023-02-17T22:33:05.644Z,1006
2023-02-17T22:36:05.773Z,1006
2023-02-17T22:39:05.482Z,1006
2023-02-17T22:42:05.544Z,1006
2023-02-17T22:45:05.518Z,1006
2023-02-17T22:48:05.558Z,1006
2023-02-17T22:51:05.591Z,1006
2023-02-17T22:54:05.544Z,1006
2023-02-17T22:57:05.594Z,1006
2023-02-17T23:00:06.068Z,1006
2023-02-17T23:03:05.674Z,1006
2023-02-17T23:06:05.874Z,1006
2023-02-17T23:09:05.581Z,1006
2023-02-17T23:12:05.458Z,1006
2023-02-17T23:15:05.581Z,1006
2023-02-17T23:18:05.522Z,1006
2023-02-17T23:21:05.524Z,1006
2023-02-17T23:24:05.541Z,1006
2023-02-17T23:27:05.534Z,1006
2023-02-17T23:30:05.765Z,1006
2023-02-17T23:33:05.609Z,1006
2023-02-17T23:36:05.671Z,1006
2023-02-17T23:39:05.552Z,1006
2023-02-17T23:42:05.542Z,1006
2023-02-17T23:45:05.508Z,1006
2023-02-17T23:48:05.540Z,1006
2023-02-17T23:51:05.546Z,1006
2023-02-17T23:54:05.505Z,1006
2023-02-17T23:57:05.570Z,1006
